Skip Navigation LinksHome page > Weather > Current weather Skip Navigation Links

Current Weather

General Mitchell International, Milwaukee

For information only: do not use for flight planning or navigation.
Latest weather
Observation time Friday, April 3, 2020 11:52 AM CDT
Local time Friday, April 3, 2020 12:34 PM CDT
Flight conditions Visual Meteorological Conditions
Winds
Wind direction Southeast (130°)
Wind speed 10 mph
Visibility 10 mi.
Sky condition
Ceiling 7,500 ft. broken clouds
Cloud layer broken clouds 7,500 ft.
Cloud layer broken clouds 9,000 ft.
Temperature 56°F
Dewpoint 32°F
Altimeter 30.08 in.Hg
Derived measurements
Relative humidity 40%
Density altitude 435 ft.
Sea-level pressure 30.09 in.Hg
Remarks
Automated weather observing station with precipitation discriminator.
METAR KMKE 031652Z 13009KT 10SM BKN075 BKN090 13/00 A3008 RMK AO2 SLP190 T01330000

Settings

Location code

InnerDrive.Weather 4.0.6770.0 Release CLR 4.0.30319.42000
Copyright ©2018 Inner Drive Technology. All rights reserved. Portions Copyright ©1986-2018 David Braverman.

Find weather

Site navigation


Skip Navigation Links

Place info

Page info

PayPal - The safer, easier way to pay online!

Return home.

Copyright ©2020 Inner Drive Technology. Purveyors of fine, hand-crafted computer software. Page printed 2020-04-03T17:34:04 UTC.